Time;durP1;ratioP1;P1;durP2;ratioP2;P2;SDS_P1;SDS_P2;PMS_P1;PMS_P2;Temp;Humidity;BMP_temperature;BMP_pressure;BME280_temperature;BME280_humidity;BME280_pressure;Samples;Min_cycle;Max_cycle;Signal;HPM_P1;HPM_P2
2023/08/01 00:02:19;;;;;;;10.95;4.35;;;16.00;99.90;;;;;;4861360;29;20041;-50
2023/08/01 00:04:46;;;;;;;8.77;3.80;;;16.00;99.90;;;;;;4861499;29;20041;-52
2023/08/01 00:07:12;;;;;;;8.68;4.15;;;16.00;99.90;;;;;;4861365;29;20038;-53
2023/08/01 00:09:39;;;;;;;11.55;4.20;;;16.00;99.90;;;;;;4844574;29;20494;-49
2023/08/01 00:12:06;;;;;;;12.10;4.38;;;16.00;99.90;;;;;;4861281;29;20049;-50
2023/08/01 00:14:33;;;;;;;12.15;4.10;;;16.00;99.90;;;;;;4861726;29;20045;-55
2023/08/01 00:16:59;;;;;;;12.38;4.07;;;16.00;99.90;;;;;;4861743;29;20058;-49
2023/08/01 00:19:26;;;;;;;9.95;4.93;;;16.00;99.90;;;;;;4861472;29;20050;-54
2023/08/01 00:21:53;;;;;;;12.02;4.40;;;16.00;99.90;;;;;;4861423;29;20128;-49
2023/08/01 00:24:20;;;;;;;12.70;4.22;;;16.00;99.90;;;;;;4861418;29;20046;-52
2023/08/01 00:26:47;;;;;;;10.02;4.40;;;16.00;99.90;;;;;;4861388;29;20046;-54
2023/08/01 00:29:14;;;;;;;15.50;4.53;;;16.00;99.90;;;;;;4860565;29;20051;-49
2023/08/01 00:31:41;;;;;;;11.00;4.57;;;15.90;99.90;;;;;;4860980;29;20059;-53
2023/08/01 00:34:07;;;;;;;13.63;4.57;;;15.90;99.90;;;;;;4861623;29;20053;-54
2023/08/01 00:36:34;;;;;;;10.27;4.60;;;15.90;99.90;;;;;;4844802;29;20057;-56
2023/08/01 00:39:01;;;;;;;13.95;4.93;;;15.80;99.90;;;;;;4844268;29;20081;-56
2023/08/01 00:41:28;;;;;;;13.40;4.70;;;15.80;99.90;;;;;;4844798;29;20049;-52
2023/08/01 00:43:55;;;;;;;12.40;4.20;;;15.70;99.90;;;;;;4861370;29;20120;-53
2023/08/01 00:46:21;;;;;;;11.40;5.18;;;15.70;99.90;;;;;;4844920;29;20057;-57
2023/08/01 00:48:48;;;;;;;12.13;4.75;;;15.70;99.90;;;;;;4844580;29;20482;-54
2023/08/01 00:51:15;;;;;;;16.98;5.57;;;15.60;99.90;;;;;;4861223;29;20055;-53
2023/08/01 00:53:42;;;;;;;10.80;4.63;;;15.60;99.90;;;;;;4861359;29;20046;-50
2023/08/01 00:56:08;;;;;;;10.02;4.35;;;15.60;99.90;;;;;;4859751;29;20061;-55
2023/08/01 00:58:35;;;;;;;13.65;5.00;;;15.60;99.90;;;;;;4861187;29;20045;-52
2023/08/01 01:01:03;;;;;;;12.25;4.70;;;15.50;99.90;;;;;;4860945;29;20052;-53
2023/08/01 01:03:30;;;;;;;13.52;5.10;;;15.50;99.90;;;;;;4845006;29;20053;-55
2023/08/01 01:05:57;;;;;;;20.20;5.20;;;15.50;99.90;;;;;;4860215;29;20478;-53
2023/08/01 01:08:24;;;;;;;12.27;4.78;;;15.50;99.90;;;;;;4860940;29;20046;-51
2023/08/01 01:10:51;;;;;;;12.57;4.50;;;15.50;99.90;;;;;;4861189;29;20107;-54
2023/08/01 01:13:18;;;;;;;11.52;4.38;;;15.50;99.90;;;;;;4861259;29;20056;-55
2023/08/01 01:15:45;;;;;;;15.13;5.18;;;15.40;99.90;;;;;;4859834;29;20061;-53
2023/08/01 01:18:11;;;;;;;15.98;5.30;;;15.40;99.90;;;;;;4844574;29;20064;-55
2023/08/01 01:20:39;;;;;;;13.43;4.57;;;15.40;99.90;;;;;;4861222;29;20065;-53
2023/08/01 01:23:05;;;;;;;13.73;4.57;;;15.40;99.90;;;;;;4861279;29;20050;-53
2023/08/01 01:25:32;;;;;;;16.30;4.97;;;15.40;99.90;;;;;;4844445;29;20137;-53
2023/08/01 01:27:59;;;;;;;10.00;4.25;;;15.40;99.90;;;;;;4844317;29;20505;-56
2023/08/01 01:30:26;;;;;;;13.25;4.45;;;15.40;99.90;;;;;;4843956;29;20057;-56
2023/08/01 01:32:52;;;;;;;15.45;4.68;;;15.50;99.90;;;;;;4860736;29;20044;-51
2023/08/01 01:35:19;;;;;;;14.13;4.72;;;15.60;99.90;;;;;;4860824;29;20049;-53
2023/08/01 01:37:46;;;;;;;12.32;4.63;;;15.60;99.90;;;;;;4860811;29;20061;-55
2023/08/01 01:40:13;;;;;;;11.52;4.15;;;15.60;99.90;;;;;;4843930;29;20046;-54
2023/08/01 01:42:40;;;;;;;14.85;4.68;;;15.50;99.90;;;;;;4863637;29;20497;-56
2023/08/01 01:45:07;;;;;;;12.70;5.00;;;15.50;99.90;;;;;;4864062;29;20045;-50
2023/08/01 01:47:34;;;;;;;14.90;4.97;;;15.50;99.90;;;;;;4862809;29;20041;-53
2023/08/01 01:50:01;;;;;;;10.88;4.00;;;15.60;99.90;;;;;;4864163;29;20045;-54
2023/08/01 01:52:27;;;;;;;19.98;4.85;;;15.50;99.90;;;;;;4864093;29;20133;-52
2023/08/01 01:54:54;;;;;;;13.20;4.88;;;15.50;99.90;;;;;;4863143;29;20056;-52
2023/08/01 01:57:21;;;;;;;13.05;3.95;;;15.60;99.90;;;;;;4864054;29;20505;-54
2023/08/01 01:59:48;;;;;;;14.15;4.28;;;15.60;99.90;;;;;;4846785;29;20505;-54
2023/08/01 02:02:15;;;;;;;11.43;4.10;;;15.60;99.90;;;;;;4847078;29;20138;-50
2023/08/01 02:04:42;;;;;;;15.73;4.25;;;15.60;99.90;;;;;;4863980;29;20098;-54
2023/08/01 02:07:08;;;;;;;12.80;4.75;;;15.60;99.90;;;;;;4847093;29;20072;-52
2023/08/01 02:09:35;;;;;;;12.73;4.63;;;15.70;99.90;;;;;;4846695;29;20073;-51
2023/08/01 02:12:04;;;;;;;13.27;3.95;;;15.70;99.90;;;;;;4847313;29;20554;-56
2023/08/01 02:14:31;;;;;;;11.52;4.80;;;15.70;99.90;;;;;;4863690;29;20045;-51
2023/08/01 02:16:58;;;;;;;13.23;4.28;;;15.80;99.90;;;;;;4863863;29;20060;-51
2023/08/01 02:19:24;;;;;;;13.93;4.75;;;15.80;99.90;;;;;;4862119;29;20088;-48
2023/08/01 02:21:51;;;;;;;13.13;4.28;;;15.90;99.90;;;;;;4846501;29;20133;-53
2023/08/01 02:24:18;;;;;;;12.35;4.10;;;15.90;99.90;;;;;;4846697;29;20045;-50
2023/08/01 02:26:45;;;;;;;10.68;4.00;;;15.90;99.90;;;;;;4862075;29;20052;-48
2023/08/01 02:29:12;;;;;;;12.32;3.70;;;15.80;99.90;;;;;;4863269;29;20053;-49
2023/08/01 02:31:38;;;;;;;12.27;4.25;;;15.80;99.90;;;;;;4863169;29;20072;-50
2023/08/01 02:34:05;;;;;;;15.25;4.75;;;15.90;99.90;;;;;;4863394;29;20045;-47
2023/08/01 02:36:32;;;;;;;13.23;4.03;;;15.90;99.90;;;;;;4863200;29;20056;-49
2023/08/01 02:38:59;;;;;;;10.20;4.15;;;15.90;99.90;;;;;;4861744;29;20053;-50
2023/08/01 02:41:26;;;;;;;11.38;4.18;;;15.90;99.90;;;;;;4862975;29;20044;-55
2023/08/01 02:43:52;;;;;;;12.57;4.70;;;15.90;99.90;;;;;;4863265;29;20563;-54
2023/08/01 02:46:19;;;;;;;13.30;4.55;;;15.90;99.90;;;;;;4861621;29;20037;-51
2023/08/01 02:48:46;;;;;;;9.65;4.00;;;15.90;99.90;;;;;;4861569;29;20045;-53
2023/08/01 02:51:13;;;;;;;12.57;4.18;;;15.90;99.90;;;;;;4863402;29;20045;-48
2023/08/01 02:53:41;;;;;;;11.50;4.60;;;16.00;99.90;;;;;;4860691;29;20049;-55
2023/08/01 02:56:09;;;;;;;14.98;4.65;;;16.00;99.90;;;;;;4862564;29;20045;-55
2023/08/01 02:58:37;;;;;;;11.05;3.90;;;16.00;99.90;;;;;;4862811;29;20103;-50
2023/08/01 03:01:03;;;;;;;13.98;4.68;;;16.00;99.90;;;;;;4862656;29;20386;-52
2023/08/01 03:03:30;;;;;;;13.27;4.20;;;16.00;99.90;;;;;;4862637;29;20045;-54
2023/08/01 03:05:57;;;;;;;12.65;3.95;;;16.00;99.90;;;;;;4862391;29;20038;-54
2023/08/01 03:08:24;;;;;;;15.52;4.60;;;16.00;99.90;;;;;;4861534;29;20049;-49
2023/08/01 03:10:51;;;;;;;11.15;3.80;;;16.00;99.90;;;;;;4862704;29;20473;-51
2023/08/01 03:13:18;;;;;;;13.45;4.00;;;16.00;99.90;;;;;;4846115;29;20049;-52
2023/08/01 03:15:45;;;;;;;12.98;5.00;;;15.90;99.90;;;;;;4862187;29;20053;-52
2023/08/01 03:18:11;;;;;;;14.25;4.93;;;15.90;99.90;;;;;;4862142;29;20068;-51
2023/08/01 03:20:38;;;;;;;14.57;4.47;;;15.90;99.90;;;;;;4862231;29;20041;-49
2023/08/01 03:23:05;;;;;;;17.95;4.85;;;15.90;99.90;;;;;;4862185;29;20053;-52
2023/08/01 03:25:32;;;;;;;13.05;4.07;;;15.80;99.90;;;;;;4862401;29;20046;-52
2023/08/01 03:27:58;;;;;;;15.13;4.20;;;15.90;99.90;;;;;;4861813;29;20052;-55
2023/08/01 03:30:27;;;;;;;14.48;4.72;;;15.90;99.90;;;;;;4845393;29;20424;-49
2023/08/01 03:32:54;;;;;;;10.98;4.32;;;15.90;99.90;;;;;;4862265;29;20042;-49
2023/08/01 03:35:21;;;;;;;14.93;4.45;;;15.90;99.90;;;;;;4845443;29;20054;-53
2023/08/01 03:37:48;;;;;;;12.13;4.10;;;15.90;99.90;;;;;;4862262;29;20087;-50
2023/08/01 03:40:15;;;;;;;10.50;4.18;;;15.90;99.90;;;;;;4861974;29;20041;-51
2023/08/01 03:42:43;;;;;;;14.10;4.40;;;15.90;99.90;;;;;;4860960;29;20482;-54
2023/08/01 03:45:11;;;;;;;13.00;4.32;;;15.90;99.90;;;;;;4862382;29;20045;-56
2023/08/01 03:47:37;;;;;;;12.60;4.22;;;15.80;99.90;;;;;;4861927;29;20049;-56
2023/08/01 03:50:04;;;;;;;14.52;4.00;;;15.80;99.90;;;;;;4860706;29;20086;-52
2023/08/01 03:52:31;;;;;;;11.75;3.78;;;15.90;99.90;;;;;;4862053;29;20052;-51
2023/08/01 03:54:58;;;;;;;11.85;4.25;;;15.80;99.90;;;;;;4860590;29;20501;-55
2023/08/01 03:57:24;;;;;;;11.18;3.65;;;15.80;99.90;;;;;;4860402;29;20061;-55
2023/08/01 03:59:51;;;;;;;14.02;4.60;;;15.80;99.90;;;;;;4860663;29;20042;-56
2023/08/01 04:02:18;;;;;;;12.40;4.15;;;15.70;99.90;;;;;;4861866;29;20132;-49
2023/08/01 04:04:45;;;;;;;12.82;3.95;;;15.70;99.90;;;;;;4844873;29;20455;-56
2023/08/01 04:07:12;;;;;;;14.60;3.88;;;15.70;99.90;;;;;;4861651;29;20052;-54
2023/08/01 04:09:39;;;;;;;12.15;3.97;;;15.70;99.90;;;;;;4861512;29;20038;-54
2023/08/01 04:12:06;;;;;;;11.63;3.65;;;15.60;99.90;;;;;;4861943;29;20049;-51
2023/08/01 04:14:33;;;;;;;16.58;4.90;;;15.60;99.90;;;;;;4861527;29;20073;-55
2023/08/01 04:17:00;;;;;;;12.10;3.90;;;15.60;99.90;;;;;;4861733;29;20497;-51
2023/08/01 04:19:26;;;;;;;12.63;3.60;;;15.60;99.90;;;;;;4861419;29;20042;-57
2023/08/01 04:21:53;;;;;;;9.45;3.88;;;15.50;99.90;;;;;;4861427;29;20053;-54
2023/08/01 04:24:20;;;;;;;14.13;4.18;;;15.50;99.90;;;;;;4861393;29;20388;-52
2023/08/01 04:26:47;;;;;;;14.95;3.95;;;15.40;99.90;;;;;;4861619;29;20492;-54
2023/08/01 04:29:15;;;;;;;13.82;4.10;;;15.40;99.90;;;;;;4860315;29;20484;-51
2023/08/01 04:31:42;;;;;;;13.98;3.90;;;15.30;99.90;;;;;;4861179;29;20054;-52
2023/08/01 04:34:09;;;;;;;11.48;3.67;;;15.30;99.90;;;;;;4861291;29;20493;-53
2023/08/01 04:36:35;;;;;;;17.73;4.57;;;15.30;99.90;;;;;;4861189;29;20506;-52
2023/08/01 04:39:02;;;;;;;11.35;3.47;;;15.20;99.90;;;;;;4860211;29;20053;-50
2023/08/01 04:41:29;;;;;;;10.27;3.53;;;15.20;99.90;;;;;;4861358;29;20045;-54
2023/08/01 04:43:56;;;;;;;12.10;3.30;;;15.20;99.90;;;;;;4861529;29;20048;-55
2023/08/01 04:46:22;;;;;;;12.98;3.97;;;15.10;99.90;;;;;;4861445;29;20038;-52
2023/08/01 04:48:49;;;;;;;13.32;3.72;;;15.20;99.90;;;;;;4861185;29;20044;-52
2023/08/01 04:51:16;;;;;;;10.43;3.63;;;15.20;99.90;;;;;;4861658;29;20053;-54
2023/08/01 04:53:43;;;;;;;12.57;3.70;;;15.10;99.90;;;;;;4861345;29;20048;-52
2023/08/01 04:56:10;;;;;;;12.90;3.28;;;15.10;99.90;;;;;;4861225;29;20469;-51
2023/08/01 04:58:36;;;;;;;11.05;3.70;;;15.10;99.90;;;;;;4861339;29;20535;-55
2023/08/01 05:01:03;;;;;;;11.27;3.47;;;15.10;99.90;;;;;;4861455;29;20101;-48
2023/08/01 05:03:30;;;;;;;10.65;3.55;;;15.10;99.90;;;;;;4861411;29;20045;-49
2023/08/01 05:05:57;;;;;;;12.18;3.45;;;15.10;99.90;;;;;;4861171;29;20042;-49
2023/08/01 05:08:24;;;;;;;13.82;3.47;;;15.10;99.90;;;;;;4861046;29;20052;-53
2023/08/01 05:10:51;;;;;;;11.13;3.28;;;15.10;99.90;;;;;;4861154;29;20057;-52
2023/08/01 05:13:17;;;;;;;10.07;3.20;;;15.10;99.90;;;;;;4861432;29;20046;-55
2023/08/01 05:15:45;;;;;;;11.18;3.47;;;15.10;99.90;;;;;;4861279;29;20042;-49
2023/08/01 05:18:11;;;;;;;13.02;4.35;;;15.10;99.90;;;;;;4864525;29;20049;-52
2023/08/01 05:20:38;;;;;;;11.55;3.30;;;15.20;99.90;;;;;;4863136;29;20054;-50
2023/08/01 05:23:05;;;;;;;13.95;3.10;;;15.10;99.90;;;;;;4864303;29;20140;-51
2023/08/01 05:25:32;;;;;;;13.35;3.33;;;15.20;99.90;;;;;;4864702;29;20041;-52
2023/08/01 05:27:59;;;;;;;11.48;3.47;;;15.20;99.90;;;;;;4864151;29;20068;-52
2023/08/01 05:30:26;;;;;;;10.45;3.40;;;15.30;99.90;;;;;;4864727;29;20110;-57
2023/08/01 05:32:54;;;;;;;11.05;3.88;;;15.40;99.90;;;;;;4864237;29;20053;-52
2023/08/01 05:35:21;;;;;;;9.50;3.22;;;15.40;99.90;;;;;;4864115;29;20045;-48
2023/08/01 05:37:48;;;;;;;13.45;3.10;;;15.50;99.90;;;;;;4864074;29;20050;-50
2023/08/01 05:40:15;;;;;;;10.80;3.03;;;15.50;99.90;;;;;;4864107;29;20073;-50
2023/08/01 05:42:41;;;;;;;9.70;2.97;;;15.60;99.90;;;;;;4864535;29;20057;-53
2023/08/01 05:45:08;;;;;;;10.18;3.08;;;15.50;99.90;;;;;;4864375;29;20056;-56
2023/08/01 05:47:36;;;;;;;12.50;3.38;;;15.50;99.90;;;;;;4864503;29;20049;-57
2023/08/01 05:50:03;;;;;;;9.75;3.42;;;15.50;99.90;;;;;;4864063;29;20081;-54
2023/08/01 05:52:30;;;;;;;9.90;3.50;;;15.50;99.90;;;;;;4863226;29;20049;-53
2023/08/01 05:54:56;;;;;;;10.45;3.58;;;15.50;99.90;;;;;;4862740;29;20053;-53
2023/08/01 05:57:23;;;;;;;9.07;3.03;;;15.50;99.90;;;;;;4862644;29;20128;-51
2023/08/01 05:59:50;;;;;;;7.97;2.78;;;15.50;99.90;;;;;;4862939;29;20062;-54
2023/08/01 06:02:17;;;;;;;8.57;2.63;;;15.50;99.90;;;;;;4862901;29;20049;-54
2023/08/01 06:04:44;;;;;;;10.00;3.20;;;15.50;99.90;;;;;;4863017;29;20037;-53
2023/08/01 06:07:11;;;;;;;13.68;3.60;;;15.50;99.90;;;;;;4862899;29;20106;-55
2023/08/01 06:09:38;;;;;;;14.45;3.65;;;15.50;99.90;;;;;;4863760;29;20046;-55
2023/08/01 06:12:04;;;;;;;13.50;3.28;;;15.50;99.90;;;;;;4863846;29;20038;-52
2023/08/01 06:14:31;;;;;;;7.72;2.72;;;15.50;99.90;;;;;;4863647;29;20060;-53
2023/08/01 06:16:58;;;;;;;9.00;2.85;;;15.60;99.90;;;;;;4863685;29;20041;-54
2023/08/01 06:19:25;;;;;;;9.82;2.80;;;15.70;99.90;;;;;;4863592;29;20065;-54
2023/08/01 06:21:51;;;;;;;9.68;2.92;;;15.60;99.90;;;;;;4862007;29;20046;-56
2023/08/01 06:24:18;;;;;;;9.75;2.92;;;15.70;99.90;;;;;;4863790;29;20045;-52
2023/08/01 06:26:45;;;;;;;10.52;2.97;;;15.90;99.90;;;;;;4863441;29;20062;-53
2023/08/01 06:29:12;;;;;;;10.23;3.10;;;16.00;99.90;;;;;;4863222;29;20053;-51
2023/08/01 06:31:38;;;;;;;12.77;3.30;;;16.10;99.90;;;;;;4863787;29;20061;-54
2023/08/01 06:34:05;;;;;;;10.73;3.20;;;16.20;99.90;;;;;;4863642;29;20057;-55
2023/08/01 06:36:32;;;;;;;12.02;3.53;;;16.10;99.90;;;;;;4863184;29;20053;-54
2023/08/01 06:38:59;;;;;;;12.90;3.15;;;16.20;99.90;;;;;;4863175;29;20041;-49
2023/08/01 06:41:26;;;;;;;9.48;2.95;;;16.20;99.90;;;;;;4862045;29;20045;-55
2023/08/01 06:43:52;;;;;;;11.98;3.10;;;16.20;99.90;;;;;;4863032;29;20048;-53
2023/08/01 06:46:19;;;;;;;12.23;3.20;;;16.20;99.90;;;;;;4862920;29;20129;-52
2023/08/01 06:48:46;;;;;;;9.07;3.22;;;16.30;99.90;;;;;;4863085;29;20533;-54
2023/08/01 06:51:13;;;;;;;9.32;2.85;;;16.40;99.90;;;;;;4861911;29;20404;-53
2023/08/01 06:53:40;;;;;;;11.52;3.10;;;16.50;99.90;;;;;;4863371;29;20038;-54
2023/08/01 06:56:06;;;;;;;15.98;3.80;;;16.50;99.90;;;;;;4863265;29;20045;-51
2023/08/01 06:58:33;;;;;;;10.88;3.22;;;16.60;99.90;;;;;;4862721;29;20042;-55
2023/08/01 07:01:00;;;;;;;13.38;3.42;;;16.50;99.90;;;;;;4862755;29;20402;-56
2023/08/01 07:03:27;;;;;;;10.75;3.05;;;16.60;99.90;;;;;;4861806;29;20054;-54
2023/08/01 07:05:54;;;;;;;11.57;3.15;;;16.60;99.90;;;;;;4863174;29;20037;-50
2023/08/01 07:08:21;;;;;;;13.02;3.22;;;16.60;99.90;;;;;;4862859;29;20087;-50
2023/08/01 07:10:48;;;;;;;8.68;2.90;;;16.60;99.90;;;;;;4862864;29;20080;-50
2023/08/01 07:13:16;;;;;;;8.60;2.67;;;16.70;99.90;;;;;;4862656;29;20073;-55
2023/08/01 07:15:42;;;;;;;11.85;3.33;;;16.70;99.90;;;;;;4862718;29;20049;-57
2023/08/01 07:18:09;;;;;;;10.27;2.97;;;16.90;99.90;;;;;;4861424;29;20091;-55
2023/08/01 07:20:36;;;;;;;11.75;3.38;;;17.10;99.90;;;;;;4862674;29;20053;-56
2023/08/01 07:23:03;;;;;;;10.20;2.80;;;17.30;99.90;;;;;;4862258;29;20069;-54
2023/08/01 07:25:30;;;;;;;11.80;3.00;;;17.40;99.90;;;;;;4862440;29;20042;-52
2023/08/01 07:27:57;;;;;;;8.63;2.72;;;17.40;99.90;;;;;;4860975;29;20057;-51
2023/08/01 07:30:24;;;;;;;10.77;2.95;;;17.50;99.90;;;;;;4861413;29;20393;-57
2023/08/01 07:32:51;;;;;;;7.28;2.40;;;17.50;99.90;;;;;;4862410;29;20048;-54
2023/08/01 07:35:17;;;;;;;7.82;2.10;;;17.60;99.90;;;;;;4862541;29;20114;-54
2023/08/01 07:37:44;;;;;;;7.40;2.13;;;17.60;99.90;;;;;;4862210;29;20181;-57
2023/08/01 07:40:11;;;;;;;6.82;2.67;;;17.70;99.90;;;;;;4860732;29;20390;-53
2023/08/01 07:42:38;;;;;;;9.60;2.60;;;17.80;99.90;;;;;;4862241;29;20049;-56
2023/08/01 07:45:05;;;;;;;8.07;2.40;;;17.90;99.90;;;;;;4862137;29;20046;-56
2023/08/01 07:47:31;;;;;;;7.70;2.40;;;18.10;99.90;;;;;;4861988;29;20073;-56
2023/08/01 07:49:58;;;;;;;9.70;2.08;;;18.10;99.90;;;;;;4862167;29;20046;-53
2023/08/01 07:52:25;;;;;;;6.22;2.15;;;18.20;99.90;;;;;;4860751;29;20053;-50
2023/08/01 07:54:53;;;;;;;9.45;2.60;;;18.30;99.90;;;;;;4845348;29;20081;-54
2023/08/01 07:57:20;;;;;;;9.52;2.17;;;18.30;99.90;;;;;;4861858;29;20052;-51
2023/08/01 07:59:47;;;;;;;7.38;1.98;;;18.30;99.90;;;;;;4861738;29;20136;-54
2023/08/01 08:02:13;;;;;;;8.55;2.10;;;18.30;99.90;;;;;;4861514;29;20495;-52
2023/08/01 08:04:40;;;;;;;6.20;1.90;;;18.10;99.90;;;;;;4861758;29;20042;-56
2023/08/01 08:07:07;;;;;;;9.77;2.30;;;18.10;99.90;;;;;;4861819;29;20442;-49
2023/08/01 08:09:34;;;;;;;4.65;1.90;;;18.00;99.90;;;;;;4861409;29;20413;-53
2023/08/01 08:12:01;;;;;;;13.45;3.00;;;17.90;99.90;;;;;;4861815;29;20052;-56
2023/08/01 08:14:27;;;;;;;5.47;2.15;;;17.90;99.90;;;;;;4861873;29;20140;-54
2023/08/01 08:16:54;;;;;;;10.00;2.30;;;18.00;99.90;;;;;;4862000;29;20054;-52
2023/08/01 08:19:24;;;;;;;8.20;1.98;;;17.90;99.90;;;;;;4861274;29;20074;-52
2023/08/01 08:21:51;;;;;;;5.38;1.80;;;17.90;99.90;;;;;;4861209;29;20064;-51
2023/08/01 08:24:18;;;;;;;7.15;2.00;;;17.90;99.90;;;;;;4861726;29;20097;-54
2023/08/01 08:26:45;;;;;;;6.35;1.75;;;17.90;99.90;;;;;;4861700;29;20045;-51
2023/08/01 08:29:12;;;;;;;8.50;2.10;;;17.90;99.90;;;;;;4861482;29;20045;-53
2023/08/01 08:31:39;;;;;;;6.68;1.73;;;17.90;99.90;;;;;;4861552;29;20065;-56
2023/08/01 08:34:06;;;;;;;7.57;1.80;;;17.90;99.90;;;;;;4861691;29;20052;-56
2023/08/01 08:36:32;;;;;;;6.68;1.80;;;17.90;99.90;;;;;;4861886;29;20109;-51
2023/08/01 08:39:00;;;;;;;7.05;1.95;;;17.90;99.90;;;;;;4861380;29;20136;-56
2023/08/01 08:41:27;;;;;;;5.97;1.75;;;17.90;99.90;;;;;;4861583;29;20060;-52
2023/08/01 08:43:54;;;;;;;7.40;1.85;;;17.90;99.90;;;;;;4861376;29;20125;-55
2023/08/01 08:46:21;;;;;;;7.03;1.60;;;17.90;99.90;;;;;;4861149;29;20045;-52
2023/08/01 08:48:48;;;;;;;7.03;1.70;;;18.10;99.90;;;;;;4861406;29;20049;-56
2023/08/01 08:51:14;;;;;;;6.00;1.77;;;18.20;99.90;;;;;;4862398;29;20034;-53
2023/08/01 08:53:41;;;;;;;8.50;1.77;;;18.30;99.90;;;;;;4865425;29;20053;-54
2023/08/01 08:56:08;;;;;;;5.70;1.60;;;18.40;99.90;;;;;;4865129;29;20096;-54
2023/08/01 08:58:35;;;;;;;4.50;1.35;;;18.50;99.90;;;;;;4864737;29;20045;-52
2023/08/01 09:01:01;;;;;;;4.68;1.30;;;18.60;99.50;;;;;;4848472;29;20060;-56
2023/08/01 09:03:28;;;;;;;5.15;1.77;;;18.60;99.20;;;;;;4864873;29;20045;-53
2023/08/01 09:05:55;;;;;;;5.18;1.25;;;18.70;98.50;;;;;;4863732;29;20049;-52
2023/08/01 09:08:24;;;;;;;5.72;1.30;;;18.70;98.30;;;;;;4864071;29;20065;-52
2023/08/01 09:10:50;;;;;;;5.13;1.50;;;18.80;98.60;;;;;;4865028;29;20049;-54
2023/08/01 09:13:17;;;;;;;4.85;1.55;;;18.80;97.80;;;;;;4863852;29;20080;-54
2023/08/01 09:15:44;;;;;;;3.17;1.10;;;18.80;98.50;;;;;;4864750;29;20442;-57
2023/08/01 09:18:11;;;;;;;6.78;1.30;;;18.80;97.30;;;;;;4864528;29;20512;-56
2023/08/01 09:20:38;;;;;;;3.92;1.40;;;18.90;97.70;;;;;;4864653;29;20049;-53
2023/08/01 09:23:05;;;;;;;7.88;1.60;;;18.90;97.40;;;;;;4864626;29;20066;-57
2023/08/01 09:25:35;;;;;;;5.03;1.58;;;19.10;97.90;;;;;;4864829;29;20046;-51
2023/08/01 09:28:01;;;;;;;5.53;1.85;;;19.10;97.40;;;;;;4864482;29;20037;-53
2023/08/01 09:30:28;;;;;;;5.22;1.50;;;19.10;97.40;;;;;;4864720;29;20045;-53
2023/08/01 09:32:55;;;;;;;7.75;1.65;;;19.30;97.70;;;;;;4864669;29;20048;-55
2023/08/01 09:35:22;;;;;;;6.97;1.50;;;19.40;97.40;;;;;;4864480;29;20076;-54
2023/08/01 09:37:49;;;;;;;4.38;1.40;;;19.40;97.50;;;;;;4864556;29;20478;-52
2023/08/01 09:40:15;;;;;;;4.45;1.30;;;19.50;97.30;;;;;;4864240;29;20041;-53
2023/08/01 09:42:42;;;;;;;4.35;1.80;;;19.50;97.20;;;;;;4863942;29;20116;-53
2023/08/01 09:45:10;;;;;;;6.97;2.85;;;19.50;97.20;;;;;;4864012;29;20049;-58
2023/08/01 09:47:37;;;;;;;5.10;1.50;;;19.50;97.40;;;;;;4864025;29;20049;-54
2023/08/01 09:50:04;;;;;;;6.53;1.50;;;19.40;96.30;;;;;;4864223;29;20060;-56
2023/08/01 09:52:30;;;;;;;4.00;1.45;;;19.30;96.30;;;;;;4864161;29;20549;-53
2023/08/01 09:54:57;;;;;;;3.88;1.40;;;19.20;96.70;;;;;;4863696;29;20546;-52
2023/08/01 09:57:24;;;;;;;6.40;1.30;;;19.20;96.20;;;;;;4864122;29;20394;-50
2023/08/01 09:59:51;;;;;;;3.28;1.10;;;19.20;96.70;;;;;;4863836;29;20073;-57
2023/08/01 10:02:18;;;;;;;6.50;1.73;;;19.30;95.90;;;;;;4863897;29;20052;-54
2023/08/01 10:04:44;;;;;;;7.10;1.35;;;19.50;96.40;;;;;;4863838;29;20585;-52
2023/08/01 10:07:11;;;;;;;6.30;1.20;;;19.70;96.00;;;;;;4863904;29;20046;-53
2023/08/01 10:09:38;;;;;;;5.10;1.25;;;19.90;96.30;;;;;;4863718;29;20038;-57
2023/08/01 10:12:05;;;;;;;5.55;1.67;;;20.00;96.10;;;;;;4863690;29;20401;-52
2023/08/01 10:14:32;;;;;;;4.90;1.48;;;20.00;96.10;;;;;;4863530;29;20121;-54
2023/08/01 10:16:58;;;;;;;4.30;1.60;;;20.10;95.40;;;;;;4863763;29;20067;-55
2023/08/01 10:19:26;;;;;;;6.57;1.65;;;20.00;95.80;;;;;;4863466;29;20050;-54
2023/08/01 10:21:53;;;;;;;4.40;1.40;;;20.00;95.60;;;;;;4863004;29;20117;-52
2023/08/01 10:24:21;;;;;;;4.18;1.20;;;20.20;95.80;;;;;;4861591;29;20057;-54
2023/08/01 10:26:48;;;;;;;6.82;1.40;;;20.20;95.50;;;;;;4862764;29;20073;-56
2023/08/01 10:29:15;;;;;;;5.82;1.58;;;20.20;94.90;;;;;;4862680;29;20136;-56
2023/08/01 10:31:42;;;;;;;5.72;1.50;;;20.30;95.60;;;;;;4862362;29;20497;-56
2023/08/01 10:34:09;;;;;;;7.18;1.67;;;20.30;95.20;;;;;;4862146;29;20101;-55
2023/08/01 10:36:39;;;;;;;5.43;1.58;;;20.30;95.00;;;;;;4862347;29;20389;-55
2023/08/01 10:39:06;;;;;;;4.00;1.25;;;20.30;95.00;;;;;;4862480;29;20061;-51
2023/08/01 10:41:33;;;;;;;6.82;1.50;;;20.20;95.00;;;;;;4862466;29;20050;-53
2023/08/01 10:44:00;;;;;;;4.07;1.08;;;20.10;95.30;;;;;;4860834;29;20069;-53
2023/08/01 10:46:26;;;;;;;6.03;1.30;;;20.10;95.10;;;;;;4862710;29;20413;-56
2023/08/01 10:48:53;;;;;;;4.13;1.10;;;20.10;95.20;;;;;;4862094;29;20394;-57
2023/08/01 10:51:20;;;;;;;6.38;1.30;;;20.00;94.80;;;;;;4862086;29;20113;-56
2023/08/01 10:53:47;;;;;;;4.13;1.30;;;20.00;95.30;;;;;;4862171;29;20076;-52
2023/08/01 10:56:14;;;;;;;3.03;1.10;;;19.90;95.00;;;;;;4861078;29;20443;-51
2023/08/01 10:58:40;;;;;;;4.75;1.65;;;20.00;95.50;;;;;;4862323;29;20466;-53
2023/08/01 11:01:07;;;;;;;5.10;1.50;;;20.00;94.40;;;;;;4862159;29;20461;-53
2023/08/01 11:03:34;;;;;;;3.88;1.02;;;20.10;95.30;;;;;;4861727;29;20086;-49
2023/08/01 11:06:03;;;;;;;6.72;1.30;;;20.30;94.80;;;;;;4861918;29;20046;-52
2023/08/01 11:08:31;;;;;;;3.40;1.30;;;20.40;94.10;;;;;;4861915;29;20049;-52
2023/08/01 11:10:58;;;;;;;3.92;1.60;;;20.50;94.40;;;;;;4860319;29;20053;-56
2023/08/01 11:13:25;;;;;;;4.57;1.05;;;20.60;93.80;;;;;;4861455;29;20125;-50
2023/08/01 11:15:54;;;;;;;4.68;1.33;;;20.60;93.40;;;;;;4861518;29;20049;-54
2023/08/01 11:18:21;;;;;;;3.15;1.00;;;20.60;93.90;;;;;;4861861;29;20057;-51
2023/08/01 11:20:48;;;;;;;4.25;1.08;;;20.70;93.80;;;;;;4860552;29;20049;-55
2023/08/01 11:23:14;;;;;;;3.63;1.20;;;20.90;93.70;;;;;;4823190;29;1153014;-54
2023/08/01 11:25:43;;;;;;;6.97;1.10;;;20.90;93.60;;;;;;4862725;29;20045;-53
2023/08/01 11:28:09;;;;;;;2.97;0.95;;;21.00;93.70;;;;;;4860930;29;20459;-53
2023/08/01 11:30:36;;;;;;;4.05;1.13;;;21.00;93.20;;;;;;4861094;29;20454;-51
2023/08/01 11:33:04;;;;;;;4.60;1.20;;;21.10;92.60;;;;;;4862515;29;20501;-53
2023/08/01 11:35:31;;;;;;;3.70;0.93;;;21.20;92.60;;;;;;4862480;29;20514;-55
2023/08/01 11:37:58;;;;;;;5.35;1.20;;;21.30;93.10;;;;;;4862223;29;20041;-54
2023/08/01 11:40:25;;;;;;;4.22;1.00;;;21.40;92.20;;;;;;4862139;29;20133;-54
2023/08/01 11:42:51;;;;;;;2.42;0.90;;;21.60;92.90;;;;;;4861694;29;20124;-53
2023/08/01 11:45:18;;;;;;;2.65;1.10;;;21.80;92.60;;;;;;4862495;29;20446;-57
2023/08/01 11:47:45;;;;;;;2.83;0.88;;;21.70;91.20;;;;;;4862501;29;20121;-58
2023/08/01 11:50:12;;;;;;;3.42;1.42;;;21.60;91.40;;;;;;4861244;29;20053;-57
2023/08/01 11:52:39;;;;;;;4.38;1.20;;;21.50;91.40;;;;;;4862032;29;20511;-53
2023/08/01 11:55:06;;;;;;;4.28;0.88;;;21.40;91.40;;;;;;4862226;29;20053;-54
2023/08/01 11:57:33;;;;;;;3.13;1.10;;;21.40;91.70;;;;;;4860821;29;20046;-57
2023/08/01 11:59:59;;;;;;;4.43;1.20;;;21.50;91.70;;;;;;4860769;29;20075;-57
2023/08/01 12:02:26;;;;;;;5.10;1.25;;;21.30;91.70;;;;;;4861611;29;20128;-57
2023/08/01 12:04:53;;;;;;;6.35;1.20;;;21.40;91.90;;;;;;4861857;29;20053;-51
2023/08/01 12:07:20;;;;;;;2.60;0.80;;;21.50;92.60;;;;;;4861742;29;20073;-56
2023/08/01 12:09:47;;;;;;;4.38;1.13;;;21.70;91.80;;;;;;4861619;29;20064;-56
2023/08/01 12:12:15;;;;;;;2.30;1.00;;;21.80;92.00;;;;;;4862038;29;20389;-54
2023/08/01 12:14:41;;;;;;;3.17;1.13;;;21.90;91.80;;;;;;4861908;29;20049;-53
2023/08/01 12:17:08;;;;;;;2.90;1.00;;;21.90;91.30;;;;;;4861738;29;20094;-57
2023/08/01 12:19:35;;;;;;;3.75;1.05;;;21.80;91.20;;;;;;4861420;29;20455;-56
2023/08/01 12:22:02;;;;;;;2.47;0.90;;;21.60;91.60;;;;;;4861283;29;20121;-51
2023/08/01 12:24:29;;;;;;;2.85;0.85;;;21.50;91.60;;;;;;4861751;29;20065;-50
2023/08/01 12:26:56;;;;;;;2.25;1.00;;;21.50;91.80;;;;;;4860297;29;20041;-54
2023/08/01 12:29:22;;;;;;;3.30;1.20;;;21.50;92.10;;;;;;4861681;29;20465;-52
2023/08/01 12:31:49;;;;;;;3.30;1.15;;;21.50;92.00;;;;;;4861789;29;20053;-57
2023/08/01 12:34:16;;;;;;;5.95;1.20;;;21.70;92.00;;;;;;4861776;29;20485;-51
2023/08/01 12:36:43;;;;;;;4.80;1.20;;;21.70;91.80;;;;;;4860187;29;20046;-57
2023/08/01 12:39:10;;;;;;;3.58;1.25;;;21.70;91.50;;;;;;4861320;29;20077;-51